Time;durP1;ratioP1;P1;durP2;ratioP2;P2;SDS_P1;SDS_P2;PMS_P1;PMS_P2;Temp;Humidity;BMP_temperature;BMP_pressure;BME280_temperature;BME280_humidity;BME280_pressure;Samples;Min_cycle;Max_cycle;Signal;HPM_P1;HPM_P2
2022/03/15 00:01:25;;;;;;;59.10;21.35;;;;;;;0.12;54.07;102134.25;4439442;32;20176;-75
2022/03/15 00:03:53;;;;;;;52.75;18.45;;;;;;;0.06;55.04;102127.00;4439545;32;20112;-75
2022/03/15 00:06:20;;;;;;;51.42;20.10;;;;;;;0.04;54.36;102127.72;4439330;32;20545;-74
2022/03/15 00:08:48;;;;;;;46.10;20.60;;;;;;;-0.11;55.39;102122.50;4439584;32;20093;-74
2022/03/15 00:11:16;;;;;;;48.80;21.02;;;;;;;-0.18;55.68;102125.53;4439397;32;20138;-74
2022/03/15 00:13:43;;;;;;;51.13;22.25;;;;;;;-0.09;55.76;102115.75;4439348;32;20571;-75
2022/03/15 00:16:10;;;;;;;47.97;21.67;;;;;;;-0.15;56.70;102113.66;4439334;32;20128;-75
2022/03/15 00:18:39;;;;;;;48.67;20.05;;;;;;;-0.09;55.28;102111.44;4439368;32;20120;-75
2022/03/15 00:21:10;;;;;;;49.40;21.42;;;;;;;0.03;55.39;102118.16;4439466;32;20093;-74
2022/03/15 00:23:39;;;;;;;55.60;25.25;;;;;;;-0.10;56.76;102112.25;4439579;32;20077;-74
2022/03/15 00:26:07;;;;;;;54.20;24.40;;;;;;;-0.20;56.30;102117.69;4439062;32;20263;-74
2022/03/15 00:28:35;;;;;;;53.38;24.10;;;;;;;-0.27;57.19;102116.44;4439236;32;20109;-74
2022/03/15 00:31:04;;;;;;;48.92;22.10;;;;;;;-0.42;58.00;102115.53;4439232;32;20722;-75
2022/03/15 00:33:31;;;;;;;52.00;22.98;;;;;;;-0.39;56.75;102107.94;4438724;32;20085;-75
2022/03/15 00:35:59;;;;;;;50.28;24.35;;;;;;;-0.39;57.59;102099.25;4439165;32;20101;-75
2022/03/15 00:38:28;;;;;;;53.63;25.15;;;;;;;-0.46;57.83;102095.41;4439232;32;20131;-74
2022/03/15 00:40:57;;;;;;;78.90;33.95;;;;;;;-0.14;55.66;102097.34;4439201;32;20493;-74
2022/03/15 00:43:24;;;;;;;165.07;70.35;;;;;;;-0.15;56.77;102113.66;4439171;32;20122;-75
2022/03/15 00:45:52;;;;;;;174.70;71.97;;;;;;;-0.38;58.14;102107.13;4439046;32;20531;-74
2022/03/15 00:48:19;;;;;;;109.43;45.92;;;;;;;-0.30;56.45;102105.00;4439139;32;20516;-74
2022/03/15 00:50:47;;;;;;;102.53;42.28;;;;;;;-0.45;58.30;102104.09;4439215;32;20151;-75
2022/03/15 00:53:14;;;;;;;91.28;38.22;;;;;;;-0.46;57.52;102110.03;4439055;32;20085;-74
2022/03/15 00:55:42;;;;;;;65.82;29.67;;;;;;;-0.29;56.44;102106.78;4439292;32;20154;-75
2022/03/15 00:58:10;;;;;;;82.40;33.40;;;;;;;-0.30;57.79;102108.47;4439220;32;20100;-75
2022/03/15 01:00:39;;;;;;;70.30;32.15;;;;;;;-0.32;58.73;102102.31;4439110;32;20103;-74
2022/03/15 01:03:07;;;;;;;61.17;26.48;;;;;;;-0.37;59.34;102097.66;4438946;32;20484;-74
2022/03/15 01:05:34;;;;;;;58.58;25.35;;;;;;;-0.38;58.06;102094.19;4438894;32;20085;-74
2022/03/15 01:08:02;;;;;;;54.28;22.13;;;;;;;-0.34;57.95;102085.78;4439021;32;20131;-75
2022/03/15 01:10:29;;;;;;;230.82;94.62;;;;;;;0.04;55.32;102088.84;4438992;32;20433;-75
2022/03/15 01:12:59;;;;;;;216.43;86.18;;;;;;;0.11;55.13;102084.09;4438935;32;20089;-75
2022/03/15 01:15:39;;;;;;;202.20;77.07;;;;;;;-0.16;57.08;102069.53;4439014;32;20121;-75
2022/03/15 01:18:06;;;;;;;163.98;64.55;;;;;;;-0.37;58.73;102067.47;4438941;32;20156;-75
2022/03/15 01:20:34;;;;;;;198.40;80.15;;;;;;;-0.37;57.88;102061.41;4438754;32;20453;-75
2022/03/15 01:23:01;;;;;;;171.32;68.12;;;;;;;-0.38;58.60;102060.50;4424601;32;20745;-75
2022/03/15 01:25:30;;;;;;;112.97;42.55;;;;;;;-0.43;59.10;102066.22;4439072;32;20475;-75
2022/03/15 01:27:58;;;;;;;134.10;48.83;;;;;;;-0.35;58.05;102060.69;4438851;32;20434;-75
2022/03/15 01:30:30;;;;;;;99.20;40.92;;;;;;;-0.37;59.39;102064.00;4438953;32;20131;-75
2022/03/15 01:32:57;;;;;;;72.55;30.02;;;;;;;-0.36;57.91;102052.81;4439071;32;20510;-75
2022/03/15 01:35:25;;;;;;;91.85;34.25;;;;;;;-0.14;56.30;102055.88;4438769;32;20119;-74
2022/03/15 01:37:52;;;;;;;52.03;22.02;;;;;;;-0.27;58.47;102055.97;4438793;32;20136;-75
2022/03/15 01:40:20;;;;;;;41.60;17.55;;;;;;;-0.56;58.70;102057.72;4438658;32;20144;-74
2022/03/15 01:42:47;;;;;;;40.83;17.50;;;;;;;-0.66;59.41;102059.66;4438473;32;20101;-75
2022/03/15 01:45:14;;;;;;;39.15;17.62;;;;;;;-0.71;60.02;102064.56;4437657;32;20456;-74
2022/03/15 01:47:43;;;;;;;32.75;13.50;;;;;;;-0.89;60.66;102063.44;4438934;32;20113;-74
2022/03/15 01:50:11;;;;;;;31.35;13.75;;;;;;;-0.64;58.29;102066.72;4438641;32;20560;-74
2022/03/15 01:52:40;;;;;;;32.63;14.02;;;;;;;-0.43;57.28;102073.97;4438620;32;20185;-74
2022/03/15 01:55:07;;;;;;;32.13;13.85;;;;;;;-0.59;59.74;102074.78;4438711;32;20139;-74
2022/03/15 01:57:34;;;;;;;31.02;13.32;;;;;;;-0.76;59.75;102076.34;4438615;32;20101;-75
2022/03/15 02:00:04;;;;;;;31.05;13.40;;;;;;;-0.93;61.36;102077.00;4438963;32;20722;-74
2022/03/15 02:02:31;;;;;;;26.17;13.88;;;;;;;-1.02;60.85;102069.56;4438714;32;20497;-74
2022/03/15 02:05:00;;;;;;;26.17;12.50;;;;;;;-0.97;60.57;102076.78;4438520;32;20391;-74
2022/03/15 02:07:27;;;;;;;32.92;13.00;;;;;;;-0.69;58.70;102075.91;4438469;32;20468;-74
2022/03/15 02:09:55;;;;;;;25.50;12.48;;;;;;;-0.71;59.42;102069.72;4438607;32;20077;-74
2022/03/15 02:12:23;;;;;;;33.05;13.57;;;;;;;-0.77;59.98;102072.84;4438378;32;20426;-74
2022/03/15 02:14:50;;;;;;;36.63;15.23;;;;;;;-0.78;59.56;102062.38;4438476;32;20084;-74
2022/03/15 02:17:17;;;;;;;26.90;13.62;;;;;;;-0.80;59.22;102067.50;4438457;32;20686;-74
2022/03/15 02:19:45;;;;;;;25.45;12.65;;;;;;;-0.81;59.31;102067.41;4438315;32;20115;-74
2022/03/15 02:22:12;;;;;;;30.08;12.70;;;;;;;-0.79;58.52;102058.03;4421249;32;20449;-74
2022/03/15 02:24:39;;;;;;;30.60;13.98;;;;;;;-0.96;61.02;102068.22;4422928;32;20093;-74
2022/03/15 02:27:11;;;;;;;28.87;12.70;;;;;;;-1.03;59.93;102058.28;4422847;32;20082;-74
2022/03/15 02:29:39;;;;;;;30.40;13.45;;;;;;;-0.85;58.58;102060.22;4423133;32;20159;-74
2022/03/15 02:32:07;;;;;;;26.65;13.45;;;;;;;-0.92;60.39;102058.06;4422799;32;20081;-74
2022/03/15 02:34:35;;;;;;;22.95;11.68;;;;;;;-0.99;59.69;102064.56;4421093;32;20127;-74
2022/03/15 02:37:02;;;;;;;27.25;12.90;;;;;;;-0.72;57.60;102067.94;4422797;32;20132;-74
2022/03/15 02:39:29;;;;;;;24.80;12.85;;;;;;;-0.88;59.04;102060.03;4421334;32;20144;-74
2022/03/15 02:41:57;;;;;;;28.20;12.88;;;;;;;-1.02;59.94;102061.81;4422621;32;20117;-74
2022/03/15 02:44:25;;;;;;;24.73;11.90;;;;;;;-1.11;60.65;102077.63;4422705;32;20183;-74
2022/03/15 02:46:52;;;;;;;28.38;12.18;;;;;;;-1.19;60.43;102072.78;4422823;32;20124;-74
2022/03/15 02:49:20;;;;;;;22.85;11.50;;;;;;;-1.22;60.49;102073.50;4422611;32;20109;-74
2022/03/15 02:51:47;;;;;;;28.40;12.15;;;;;;;-1.03;58.99;102078.09;4422631;32;20089;-74
2022/03/15 02:54:15;;;;;;;24.67;11.93;;;;;;;-0.96;58.68;102077.69;4422321;32;20096;-74
2022/03/15 02:56:43;;;;;;;27.05;13.10;;;;;;;-0.80;57.95;102079.53;4422760;32;20176;-74
2022/03/15 02:59:14;;;;;;;26.15;12.13;;;;;;;-0.79;58.51;102071.84;4422827;32;20085;-74
2022/03/15 03:01:45;;;;;;;24.42;12.65;;;;;;;-0.84;58.25;102072.38;4423216;32;20111;-74
2022/03/15 03:04:19;;;;;;;22.95;12.70;;;;;;;-0.88;58.67;102072.97;4424626;32;20207;-74
2022/03/15 03:06:47;;;;;;;28.27;13.45;;;;;;;-0.85;58.00;102068.00;4424670;32;20101;-74
2022/03/15 03:09:16;;;;;;;26.67;11.98;;;;;;;-1.16;61.22;102070.41;4422788;32;20077;-74
2022/03/15 03:11:43;;;;;;;26.00;12.95;;;;;;;-1.13;59.56;102062.81;4424524;32;20140;-74
2022/03/15 03:14:14;;;;;;;23.10;12.20;;;;;;;-1.07;60.01;102069.25;4424423;32;20251;-74
2022/03/15 03:16:41;;;;;;;23.62;12.10;;;;;;;-1.22;60.50;102071.78;4424461;32;20783;-74
2022/03/15 03:19:09;;;;;;;32.20;13.60;;;;;;;-1.42;62.03;102074.81;4424250;32;20445;-74
2022/03/15 03:21:36;;;;;;;30.12;12.15;;;;;;;-1.60;62.00;102074.53;4422655;32;20086;-74
2022/03/15 03:24:08;;;;;;;30.73;12.63;;;;;;;-1.45;60.72;102075.53;4422737;32;20097;-74
2022/03/15 03:26:38;;;;;;;27.42;13.50;;;;;;;-1.43;60.99;102077.31;4424169;32;20215;-74
2022/03/15 03:29:09;;;;;;;22.58;11.70;;;;;;;-1.35;60.72;102070.91;4424418;32;20120;-74
2022/03/15 03:31:42;;;;;;;27.65;12.80;;;;;;;-1.26;59.81;102067.22;4424654;32;20077;-74
2022/03/15 03:34:11;;;;;;;26.02;13.40;;;;;;;-1.44;60.91;102063.50;4424295;32;20082;-74
2022/03/15 03:36:39;;;;;;;27.98;12.80;;;;;;;-1.50;60.50;102071.75;4424176;32;20093;-73
2022/03/15 03:39:25;;;;;;;28.45;12.82;;;;;;;-1.46;60.31;102067.66;4424514;32;20082;-74
2022/03/15 03:41:54;;;;;;;39.28;12.82;;;;;;;-1.10;58.14;102073.34;4424291;32;20093;-74
2022/03/15 03:44:21;;;;;;;28.85;13.35;;;;;;;-0.94;58.28;102077.78;4424038;32;20113;-74
2022/03/15 03:46:48;;;;;;;23.98;12.00;;;;;;;-1.30;60.45;102087.63;4422430;32;20816;-74
2022/03/15 03:49:16;;;;;;;33.25;14.00;;;;;;;-1.39;60.16;102080.19;4424115;32;20093;-74
2022/03/15 03:51:43;;;;;;;25.73;11.98;;;;;;;-1.56;62.23;102073.03;4424288;32;20170;-74
2022/03/15 03:54:11;;;;;;;24.25;13.00;;;;;;;-1.78;63.42;102075.94;4424164;32;20094;-74
2022/03/15 03:56:38;;;;;;;27.55;13.27;;;;;;;-1.95;63.27;102073.13;4424010;32;20121;-74
2022/03/15 03:59:07;;;;;;;32.95;13.98;;;;;;;-2.06;64.12;102076.69;4424315;32;20074;-74
2022/03/15 04:01:34;;;;;;;26.77;13.43;;;;;;;-2.15;64.87;102076.09;4422484;32;20454;-74
2022/03/15 04:04:05;;;;;;;32.25;13.35;;;;;;;-2.15;63.81;102085.56;4423913;32;20165;-74
2022/03/15 04:06:33;;;;;;;29.17;13.40;;;;;;;-2.21;65.14;102081.75;4423381;32;20098;-74
2022/03/15 04:09:01;;;;;;;31.90;13.60;;;;;;;-2.31;65.15;102078.44;4424007;32;20154;-74
2022/03/15 04:11:31;;;;;;;33.80;13.55;;;;;;;-2.36;65.19;102079.84;4423967;32;20506;-74
2022/03/15 04:13:59;;;;;;;29.83;13.57;;;;;;;-2.42;65.68;102076.03;4423997;32;20124;-74
2022/03/15 04:16:27;;;;;;;24.55;12.70;;;;;;;-2.36;65.58;102077.25;4424059;32;20482;-74
2022/03/15 04:18:55;;;;;;;25.88;10.95;;;;;;;-2.33;65.40;102074.84;4421196;32;86619;-73
2022/03/15 04:21:24;;;;;;;23.80;11.43;;;;;;;-2.04;62.35;102076.81;4433124;32;20089;-74
2022/03/15 04:23:53;;;;;;;32.25;12.80;;;;;;;-1.62;59.98;102086.47;4439313;32;20089;-74
2022/03/15 04:26:21;;;;;;;24.12;12.02;;;;;;;-1.47;58.97;102077.09;4439222;32;20093;-74
2022/03/15 04:28:48;;;;;;;29.95;12.90;;;;;;;-1.37;58.67;102077.69;4439274;32;20526;-74
2022/03/15 04:31:16;;;;;;;24.20;12.50;;;;;;;-1.57;60.24;102085.06;4439330;32;20124;-74
2022/03/15 04:33:43;;;;;;;26.98;12.68;;;;;;;-1.55;59.40;102080.91;4439157;32;20120;-74
2022/03/15 04:36:11;;;;;;;29.30;12.35;;;;;;;-1.69;61.74;102087.75;4424788;32;20139;-74
2022/03/15 04:38:39;;;;;;;24.25;12.37;;;;;;;-1.89;61.88;102090.72;4439165;32;20159;-74
2022/03/15 04:41:07;;;;;;;25.80;12.57;;;;;;;-2.08;63.13;102095.50;4439267;32;20153;-74
2022/03/15 04:43:34;;;;;;;25.70;12.37;;;;;;;-2.14;63.47;102103.72;4424704;32;20461;-74
2022/03/15 04:46:01;;;;;;;25.08;11.82;;;;;;;-2.17;62.81;102104.37;4424794;32;20607;-74
2022/03/15 04:48:34;;;;;;;23.23;10.32;;;;;;;-2.20;63.33;102104.19;4439211;32;20449;-74
2022/03/15 04:51:05;;;;;;;22.37;12.02;;;;;;;-1.89;60.79;102102.75;4424597;32;20120;-74
2022/03/15 04:53:32;;;;;;;26.62;12.73;;;;;;;-1.74;60.04;102109.81;4424843;32;20109;-74
2022/03/15 04:55:59;;;;;;;25.02;11.52;;;;;;;-1.79;60.56;102111.22;4439110;32;20676;-74
2022/03/15 04:58:27;;;;;;;19.62;11.00;;;;;;;-1.79;60.76;102107.75;4439060;32;20483;-74
2022/03/15 05:00:54;;;;;;;24.35;12.05;;;;;;;-1.55;58.98;102111.91;4439070;32;20157;-74
2022/03/15 05:03:22;;;;;;;24.83;11.20;;;;;;;-1.70;60.99;102108.31;4438983;32;20097;-74
2022/03/15 05:05:50;;;;;;;24.55;11.68;;;;;;;-1.83;61.73;102111.81;4439015;32;20158;-74
2022/03/15 05:08:17;;;;;;;24.80;12.05;;;;;;;-1.94;62.38;102112.78;4424729;32;20517;-74
2022/03/15 05:13:31;;;;;;;25.15;12.10;;;;;;;-2.11;63.70;102121.09;4439009;32;20093;-74
2022/03/15 05:15:58;;;;;;;26.85;10.88;;;;;;;-2.14;63.12;102118.31;4424722;32;20555;-74
2022/03/15 05:18:26;;;;;;;32.50;13.13;;;;;;;-2.14;62.62;102111.47;4438804;32;20089;-74
2022/03/15 05:20:53;;;;;;;27.95;12.70;;;;;;;-2.09;63.87;102111.75;4438795;32;20377;-74
2022/03/15 05:23:21;;;;;;;26.52;12.82;;;;;;;-2.05;63.89;102112.09;4438811;32;20090;-74
2022/03/15 05:25:48;;;;;;;27.92;14.18;;;;;;;-2.01;63.43;102108.91;4438750;32;20172;-74
2022/03/15 05:28:15;;;;;;;37.30;15.75;;;;;;;-1.89;62.07;102110.50;4424473;32;20073;-74
2022/03/15 05:30:42;;;;;;;34.33;14.15;;;;;;;-1.66;61.05;102109.41;4438881;32;20101;-74
2022/03/15 05:33:09;;;;;;;29.42;15.32;;;;;;;-1.56;61.45;102099.78;4424456;32;20104;-74
2022/03/15 05:35:40;;;;;;;36.20;14.68;;;;;;;-1.41;60.34;102107.63;4438863;32;20096;-74
2022/03/15 05:38:09;;;;;;;30.95;14.35;;;;;;;-1.28;61.42;102101.53;4438796;32;20110;-74
2022/03/15 05:40:36;;;;;;;34.90;14.75;;;;;;;-1.18;60.14;102103.91;4438938;32;20173;-74
2022/03/15 05:43:04;;;;;;;39.35;16.02;;;;;;;-1.03;59.82;102109.16;4438639;32;20105;-74
2022/03/15 05:45:32;;;;;;;40.40;17.37;;;;;;;-0.91;59.18;102114.22;4438873;32;20109;-74
2022/03/15 05:47:59;;;;;;;43.13;17.42;;;;;;;-0.78;58.59;102108.97;4438607;32;20184;-74
2022/03/15 05:50:26;;;;;;;39.47;16.73;;;;;;;-0.63;58.34;102109.94;4438631;32;20101;-75
2022/03/15 05:52:53;;;;;;;34.35;16.20;;;;;;;-0.52;58.26;102103.72;4438780;32;20174;-74
2022/03/15 05:55:21;;;;;;;32.63;14.95;;;;;;;-0.40;58.57;102105.25;4438624;32;20093;-75
2022/03/15 05:57:48;;;;;;;39.72;17.45;;;;;;;-0.29;56.97;102105.06;4438721;32;20097;-75
2022/03/15 06:00:17;;;;;;;35.22;16.80;;;;;;;-0.13;56.31;102104.31;4438649;32;20093;-75
2022/03/15 06:02:44;;;;;;;36.65;17.02;;;;;;;0.05;56.03;102101.88;4438534;32;20233;-75
2022/03/15 06:05:12;;;;;;;44.60;18.65;;;;;;;0.20;56.30;102110.53;4438538;32;20139;-75
2022/03/15 06:07:47;;;;;;;39.35;18.50;;;;;;;0.40;56.68;102109.09;4424243;32;20496;-75
2022/03/15 06:10:15;;;;;;;37.38;18.02;;;;;;;0.54;56.64;102109.00;4438625;32;20089;-75
2022/03/15 06:12:45;;;;;;;34.00;16.25;;;;;;;0.68;56.37;102108.06;4438259;32;20128;-75
2022/03/15 06:15:15;;;;;;;35.22;16.70;;;;;;;0.81;55.42;102107.91;4438461;32;20458;-75
2022/03/15 06:17:56;;;;;;;34.95;17.65;;;;;;;0.94;54.59;102114.69;4438443;32;20488;-75
2022/03/15 06:20:25;;;;;;;35.33;16.10;;;;;;;1.05;54.52;102108.37;4438233;32;20453;-75
2022/03/15 06:22:56;;;;;;;33.25;16.08;;;;;;;1.14;54.36;102108.88;4438313;32;20089;-75
2022/03/15 06:25:25;;;;;;;34.40;15.32;;;;;;;1.24;54.09;102112.88;4424210;32;20112;-75
2022/03/15 06:27:53;;;;;;;34.60;15.75;;;;;;;1.32;54.39;102119.34;4438207;32;20164;-75
2022/03/15 06:30:21;;;;;;;32.10;15.70;;;;;;;1.38;54.46;102113.62;4437692;32;20097;-75
2022/03/15 06:32:48;;;;;;;34.20;16.48;;;;;;;1.47;54.29;102124.47;4438215;32;20097;-75
2022/03/15 06:35:15;;;;;;;39.45;17.50;;;;;;;1.59;54.18;102114.75;4438321;32;20123;-75
2022/03/15 06:37:45;;;;;;;39.65;17.10;;;;;;;1.68;54.50;102127.31;4438060;32;20407;-75
2022/03/15 06:40:15;;;;;;;31.45;16.10;;;;;;;1.76;54.73;102127.69;4438195;32;20084;-75
2022/03/15 06:42:44;;;;;;;35.80;17.42;;;;;;;1.83;55.12;102119.41;4438083;32;20082;-75
2022/03/15 06:45:11;;;;;;;37.50;17.42;;;;;;;2.03;53.93;102117.81;4438043;32;20109;-75
2022/03/15 06:47:39;;;;;;;35.92;17.30;;;;;;;2.19;54.57;102117.78;4437975;32;20108;-75
2022/03/15 06:50:08;;;;;;;39.35;17.65;;;;;;;2.34;54.07;102115.06;4437935;32;20513;-75
2022/03/15 06:52:36;;;;;;;41.20;18.02;;;;;;;2.57;54.21;102108.34;4437934;32;20090;-75
2022/03/15 06:55:04;;;;;;;44.50;17.15;;;;;;;2.69;53.56;102101.16;4410641;32;20460;-75
2022/03/15 06:57:32;;;;;;;37.38;17.67;;;;;;;2.87;53.74;102099.41;4437672;32;20155;-75
2022/03/15 07:00:00;;;;;;;41.78;17.80;;;;;;;2.98;53.46;102091.22;4437811;32;20101;-75
2022/03/15 07:02:27;;;;;;;36.83;17.20;;;;;;;3.16;52.68;102092.03;4437517;32;20123;-75
2022/03/15 07:04:55;;;;;;;37.92;17.70;;;;;;;3.40;51.57;102094.87;4437659;32;20131;-75
2022/03/15 07:07:23;;;;;;;47.42;18.12;;;;;;;3.60;49.19;102090.50;4437687;32;20085;-75
2022/03/15 07:09:50;;;;;;;47.55;18.95;;;;;;;3.72;49.37;102087.56;4437644;32;20809;-75
2022/03/15 07:12:19;;;;;;;34.85;16.65;;;;;;;3.80;48.93;102084.47;4437571;32;20493;-75
2022/03/15 07:14:47;;;;;;;34.97;16.77;;;;;;;3.90;48.06;102080.53;4437624;32;20096;-75
2022/03/15 07:17:14;;;;;;;33.40;16.42;;;;;;;4.07;46.90;102081.25;4437482;32;20421;-75
2022/03/15 07:19:43;;;;;;;33.15;15.82;;;;;;;4.23;46.74;102080.16;4437372;32;20421;-75
2022/03/15 07:22:10;;;;;;;28.60;15.13;;;;;;;4.31;46.10;102083.94;4437201;32;20108;-75
2022/03/15 07:24:38;;;;;;;29.17;15.48;;;;;;;4.36;45.73;102090.28;4436064;32;20141;-75
2022/03/15 07:27:05;;;;;;;29.77;15.85;;;;;;;4.55;44.49;102095.38;4436509;32;20142;-75
2022/03/15 07:29:32;;;;;;;29.67;14.73;;;;;;;4.65;45.10;102091.44;4436725;32;20156;-75
2022/03/15 07:31:59;;;;;;;30.02;14.43;;;;;;;4.85;44.50;102087.00;4437167;32;20101;-75
2022/03/15 07:34:27;;;;;;;27.33;13.90;;;;;;;4.92;43.64;102082.91;4437053;32;20433;-75
2022/03/15 07:36:54;;;;;;;33.17;13.98;;;;;;;5.05;43.28;102090.34;4437089;32;20483;-75
2022/03/15 07:39:21;;;;;;;29.50;13.95;;;;;;;5.19;42.94;102088.25;4422789;32;20144;-75
2022/03/15 07:41:51;;;;;;;27.33;13.43;;;;;;;5.33;42.30;102089.66;4437222;32;20131;-75
2022/03/15 07:44:18;;;;;;;35.60;12.98;;;;;;;5.46;41.99;102086.66;4424673;32;20109;-75
2022/03/15 07:46:48;;;;;;;29.60;13.40;;;;;;;5.55;41.31;102083.50;4438926;32;20155;-75
2022/03/15 07:49:18;;;;;;;25.42;14.23;;;;;;;5.63;41.18;102094.25;4439389;32;20086;-75
2022/03/15 07:51:46;;;;;;;37.13;15.00;;;;;;;5.75;40.85;102085.09;4439175;32;20105;-75
2022/03/15 07:54:14;;;;;;;31.62;15.27;;;;;;;5.84;41.76;102091.50;4425017;32;20109;-75
2022/03/15 07:56:43;;;;;;;29.63;14.55;;;;;;;6.04;40.79;102087.84;4424762;32;20093;-75
2022/03/15 07:59:10;;;;;;;32.13;15.35;;;;;;;6.17;40.42;102083.94;4439127;32;20558;-74
2022/03/15 08:01:38;;;;;;;35.10;15.23;;;;;;;6.31;40.48;102089.62;4438774;32;20765;-75
2022/03/15 08:04:06;;;;;;;32.35;15.95;;;;;;;6.41;39.69;102084.72;4438835;32;20105;-74
2022/03/15 08:06:35;;;;;;;27.55;14.98;;;;;;;6.58;39.85;102087.00;4439036;32;20116;-75
2022/03/15 08:09:03;;;;;;;40.28;15.93;;;;;;;6.77;39.77;102096.31;4439345;32;20172;-75
2022/03/15 08:11:32;;;;;;;25.77;14.20;;;;;;;7.03;39.35;102090.16;4439084;32;20448;-75
2022/03/15 08:13:59;;;;;;;31.48;15.65;;;;;;;7.25;38.46;102099.53;4438230;32;20092;-75
2022/03/15 08:16:27;;;;;;;29.83;14.82;;;;;;;7.34;38.35;102088.41;4423694;32;20097;-75
2022/03/15 08:18:55;;;;;;;36.20;15.68;;;;;;;7.64;38.02;102081.41;4438327;32;20187;-75
2022/03/15 08:21:23;;;;;;;29.25;14.93;;;;;;;7.73;37.47;102088.63;4437552;32;20174;-75
2022/03/15 08:23:50;;;;;;;36.80;16.48;;;;;;;7.96;36.87;102078.75;4437554;32;20768;-75
2022/03/15 08:26:18;;;;;;;30.30;14.80;;;;;;;8.26;36.53;102070.75;4437729;32;20089;-75
2022/03/15 08:28:48;;;;;;;27.87;14.52;;;;;;;8.33;35.96;102072.69;4422827;32;20222;-75
2022/03/15 08:31:16;;;;;;;33.65;14.55;;;;;;;8.45;36.43;102077.41;4437675;32;20113;-75
2022/03/15 08:33:47;;;;;;;30.35;14.93;;;;;;;8.80;35.42;102070.31;4437901;32;20123;-75
2022/03/15 08:36:14;;;;;;;30.17;14.50;;;;;;;8.84;35.04;102071.28;4437792;32;20415;-75
2022/03/15 08:38:41;;;;;;;37.72;14.82;;;;;;;8.94;34.84;102070.63;4437774;32;20378;-75
2022/03/15 08:41:11;;;;;;;26.33;14.38;;;;;;;9.16;34.95;102073.72;4438226;32;20090;-75
2022/03/15 08:43:38;;;;;;;28.90;14.57;;;;;;;9.25;33.87;102063.38;4438143;32;20140;-75
2022/03/15 08:46:05;;;;;;;31.08;14.38;;;;;;;9.45;34.44;102064.66;4423887;32;20162;-75
2022/03/15 08:48:33;;;;;;;30.08;14.95;;;;;;;9.56;33.57;102055.22;4424036;32;20481;-75
2022/03/15 08:51:00;;;;;;;25.42;13.38;;;;;;;9.65;33.03;102049.25;4438186;32;20384;-75
2022/03/15 08:53:29;;;;;;;27.25;14.75;;;;;;;9.94;33.23;102047.16;4437773;32;20152;-75
2022/03/15 08:55:57;;;;;;;33.50;15.90;;;;;;;10.14;33.67;102046.59;4410998;32;20073;-75
2022/03/15 08:58:24;;;;;;;26.45;14.05;;;;;;;10.24;33.25;102030.06;4438331;32;20097;-75
2022/03/15 09:00:52;;;;;;;22.33;13.85;;;;;;;10.57;32.92;102035.03;4438157;32;20128;-75
2022/03/15 09:03:20;;;;;;;35.35;15.57;;;;;;;10.75;32.35;102031.75;4438186;32;20528;-75
2022/03/15 09:05:47;;;;;;;33.55;14.27;;;;;;;11.11;32.21;102030.47;4438374;32;20723;-75
2022/03/15 09:08:18;;;;;;;26.08;14.02;;;;;;;11.07;31.35;102031.28;4438040;32;20081;-73
2022/03/15 09:10:47;;;;;;;44.47;15.18;;;;;;;11.40;30.98;102020.22;4437865;32;20533;-73
2022/03/15 09:13:14;;;;;;;28.15;13.93;;;;;;;11.45;30.70;102016.78;4437613;32;20613;-73
2022/03/15 09:15:42;;;;;;;26.70;13.85;;;;;;;11.67;31.20;102017.00;4437492;32;20124;-73
2022/03/15 09:18:12;;;;;;;27.37;13.43;;;;;;;11.83;30.58;102015.38;4437694;32;20185;-73
2022/03/15 09:20:41;;;;;;;31.05;14.82;;;;;;;12.02;30.67;102009.44;4437225;32;20520;-73
2022/03/15 09:23:08;;;;;;;32.25;18.12;;;;;;;12.33;29.92;102014.94;4438084;32;20449;-73
2022/03/15 09:25:36;;;;;;;24.80;14.20;;;;;;;12.53;29.59;102000.09;4437821;32;20081;-74
2022/03/15 09:28:04;;;;;;;28.27;14.70;;;;;;;12.78;29.72;102000.22;4438172;32;20194;-73
2022/03/15 09:30:32;;;;;;;29.95;14.77;;;;;;;12.82;28.85;101996.69;4438530;32;20552;-73
2022/03/15 09:33:00;;;;;;;42.22;15.05;;;;;;;13.01;28.50;101995.03;4437571;32;20181;-73
2022/03/15 09:35:27;;;;;;;30.62;15.60;;;;;;;13.14;28.00;101996.81;4438586;32;20157;-73
2022/03/15 09:37:55;;;;;;;29.67;15.70;;;;;;;13.09;28.53;101988.88;4438561;32;20176;-74
2022/03/15 09:40:25;;;;;;;32.75;14.65;;;;;;;13.48;28.32;101989.03;4438497;32;20524;-73
2022/03/15 09:43:02;;;;;;;34.90;14.50;;;;;;;13.77;27.61;101981.97;4438504;32;20096;-74
2022/03/15 09:45:32;;;;;;;39.63;13.60;;;;;;;13.86;27.65;101979.34;4438607;32;20502;-74
2022/03/15 09:48:03;;;;;;;24.77;12.75;;;;;;;14.04;27.70;101975.81;4438376;32;20089;-74
2022/03/15 09:50:31;;;;;;;32.60;13.10;;;;;;;14.39;27.14;101976.66;4438660;32;20485;-74
2022/03/15 09:53:00;;;;;;;26.75;12.95;;;;;;;14.61;26.62;101969.53;4438642;32;20226;-74
2022/03/15 09:55:27;;;;;;;23.10;12.37;;;;;;;14.89;26.14;101975.63;4438449;32;20073;-74
2022/03/15 09:57:55;;;;;;;35.80;12.52;;;;;;;14.82;26.08;101973.00;4438591;32;20093;-74
2022/03/15 10:00:24;;;;;;;20.50;10.95;;;;;;;14.10;26.51;101969.63;4438760;32;20110;-73
2022/03/15 10:02:52;;;;;;;27.92;12.70;;;;;;;14.55;26.56;101963.34;4438396;32;20146;-74
2022/03/15 10:05:19;;;;;;;22.50;12.35;;;;;;;14.76;26.64;101962.41;4437248;32;20419;-74
2022/03/15 10:07:47;;;;;;;19.92;10.73;;;;;;;14.99;25.98;101959.66;4438477;32;20093;-74
2022/03/15 10:10:15;;;;;;;25.25;11.55;;;;;;;15.39;25.90;101959.41;4438591;32;20514;-74
2022/03/15 10:12:43;;;;;;;25.23;13.70;;;;;;;15.72;25.16;101954.78;4438480;32;20173;-74
2022/03/15 10:15:16;;;;;;;24.92;11.63;;;;;;;15.59;25.70;101950.44;4438379;32;20440;-74
2022/03/15 10:17:44;;;;;;;22.70;10.88;;;;;;;15.38;25.50;101951.47;4438428;32;20548;-74
2022/03/15 10:20:13;;;;;;;18.17;10.00;;;;;;;15.17;25.08;101949.84;4438319;32;20094;-74
2022/03/15 10:22:53;;;;;;;17.37;8.85;;;;;;;14.97;25.46;101952.59;4438369;32;20096;-74
2022/03/15 10:25:22;;;;;;;21.87;10.60;;;;;;;15.00;25.58;101940.19;4438410;32;20434;-74
2022/03/15 10:27:50;;;;;;;27.25;10.57;;;;;;;15.34;25.42;101940.00;4438108;32;20433;-74
2022/03/15 10:30:18;;;;;;;27.05;12.02;;;;;;;15.93;24.85;101938.63;4438156;32;20509;-74
2022/03/15 10:32:47;;;;;;;23.62;11.95;;;;;;;15.53;25.12;101941.59;4438333;32;20140;-74
2022/03/15 10:35:19;;;;;;;22.02;11.12;;;;;;;15.50;25.18;101931.00;4438367;32;20120;-74
2022/03/15 10:37:47;;;;;;;18.90;11.45;;;;;;;15.95;24.99;101934.19;4438315;32;20160;-74
2022/03/15 10:40:15;;;;;;;28.95;11.00;;;;;;;16.15;24.63;101915.41;4438126;32;20097;-74
2022/03/15 10:42:44;;;;;;;22.33;10.70;;;;;;;16.71;24.91;101904.97;4438157;32;20488;-74
2022/03/15 10:45:22;;;;;;;17.00;10.35;;;;;;;16.92;24.04;101904.72;4438042;32;21128;-74
2022/03/15 10:47:55;;;;;;;20.50;10.07;;;;;;;17.17;23.26;101904.34;4438008;32;20089;-74
2022/03/15 10:50:23;;;;;;;20.67;9.30;;;;;;;16.25;24.28;101894.87;4423589;32;20208;-74
2022/03/15 10:52:51;;;;;;;14.57;9.48;;;;;;;17.07;24.22;101886.78;4437948;32;20165;-74
2022/03/15 10:55:29;;;;;;;16.52;9.95;;;;;;;17.65;22.74;101894.72;4437919;32;20111;-74
2022/03/15 10:57:57;;;;;;;14.63;9.50;;;;;;;17.15;22.83;101883.09;4438063;32;20094;-74
2022/03/15 11:00:25;;;;;;;32.50;9.88;;;;;;;16.94;23.32;101865.66;4437852;32;20566;-74
2022/03/15 11:02:53;;;;;;;18.00;8.73;;;;;;;17.03;23.47;101861.06;4437789;32;20093;-74
2022/03/15 11:05:41;;;;;;;16.98;9.02;;;;;;;17.11;22.70;101853.87;4437767;32;20560;-74
2022/03/15 11:08:14;;;;;;;15.27;8.90;;;;;;;18.01;22.02;101846.09;4437662;32;20622;-74
2022/03/15 11:10:46;;;;;;;12.20;8.32;;;;;;;17.78;21.69;101851.88;4437731;32;20094;-74
2022/03/15 11:13:13;;;;;;;13.62;8.25;;;;;;;18.36;20.34;101834.72;4437747;32;20113;-74
2022/03/15 11:15:46;;;;;;;14.63;8.68;;;;;;;19.06;21.09;101830.50;4437753;32;20081;-74
2022/03/15 11:18:15;;;;;;;10.52;8.27;;;;;;;20.36;18.90;101820.81;4425850;32;20085;-74
2022/03/15 11:20:46;;;;;;;15.77;8.65;;;;;;;20.99;18.62;101814.41;4439649;32;20120;-74